createdAt,value
2019-04-25T00:00:53.768Z,17.43
2019-04-25T00:06:09.859Z,18.30
2019-04-25T00:08:37.372Z,17.60
2019-04-25T00:11:46.579Z,17.63
2019-04-25T00:14:28.212Z,18.83
2019-04-25T00:16:55.385Z,20.37
2019-04-25T00:19:22.232Z,20.87
2019-04-25T00:22:09.106Z,21.97
2019-04-25T00:24:56.532Z,21.17
2019-04-25T00:30:13.144Z,22.80
2019-04-25T00:32:42.150Z,21.83
2019-04-25T00:35:09.722Z,21.90
2019-04-25T00:37:36.853Z,23.30
2019-04-25T00:40:04.618Z,21.27
2019-04-25T00:42:32.172Z,21.10
2019-04-25T00:44:59.664Z,22.03
2019-04-25T00:47:26.746Z,20.50
2019-04-25T00:49:53.968Z,21.13
2019-04-25T00:52:22.637Z,20.63
2019-04-25T00:54:52.325Z,21.53
2019-04-25T00:57:19.902Z,21.77
2019-04-25T01:05:57.952Z,20.83
2019-04-25T01:08:24.853Z,20.60
2019-04-25T01:10:52.272Z,20.20
2019-04-25T01:13:22.286Z,20.33
2019-04-25T01:15:51.084Z,20.73
2019-04-25T01:18:19.392Z,21.40
2019-04-25T01:20:46.973Z,19.73
2019-04-25T01:23:15.615Z,20.77
2019-04-25T01:25:44.731Z,19.00
2019-04-25T01:28:13.160Z,19.73
2019-04-25T01:30:40.521Z,19.80
2019-04-25T01:33:07.969Z,19.90
2019-04-25T01:38:58.831Z,20.33
2019-04-25T01:41:47.567Z,19.80
2019-04-25T01:44:34.795Z,20.40
2019-04-25T01:47:01.628Z,19.73
2019-04-25T01:49:28.421Z,21.13
2019-04-25T01:51:57.385Z,19.93
2019-04-25T01:54:23.944Z,20.77
2019-04-25T01:56:50.963Z,21.30
2019-04-25T01:59:17.651Z,21.20
2019-04-25T02:01:44.502Z,19.97
2019-04-25T02:04:13.146Z,19.23
2019-04-25T02:07:00.153Z,21.13
2019-04-25T02:09:27.423Z,21.17
2019-04-25T02:12:15.512Z,22.23
2019-04-25T02:14:43.563Z,20.93
2019-04-25T02:17:11.154Z,20.93
2019-04-25T02:19:38.707Z,20.20
2019-04-25T02:22:06.334Z,21.10
2019-04-25T02:24:33.953Z,20.00
2019-04-25T02:27:04.569Z,18.60
2019-04-25T02:29:33.258Z,20.70
2019-04-25T02:34:36.198Z,18.43
2019-04-25T02:37:08.347Z,17.07
2019-04-25T02:39:36.857Z,18.07
2019-04-25T02:42:04.036Z,18.30
2019-04-25T02:47:39.603Z,18.03
2019-04-25T02:50:26.408Z,18.27
2019-04-25T02:53:14.177Z,17.93
2019-04-25T02:55:41.347Z,17.83
2019-04-25T02:58:10.213Z,17.93
2019-04-25T03:00:51.724Z,17.57
2019-04-25T03:03:08.890Z,17.13
2019-04-25T03:05:36.302Z,17.33
2019-04-25T03:08:09.915Z,17.87
2019-04-25T03:10:36.060Z,16.90
2019-04-25T03:13:07.086Z,19.07
2019-04-25T03:15:34.238Z,17.83
2019-04-25T03:18:05.673Z,17.77
2019-04-25T03:23:55.065Z,17.70
2019-04-25T03:26:23.316Z,17.73
2019-04-25T03:28:50.928Z,17.13
2019-04-25T03:31:22.522Z,16.93
2019-04-25T03:33:46.666Z,17.00
2019-04-25T03:36:13.984Z,14.83
2019-04-25T03:38:44.072Z,14.30
2019-04-25T03:41:11.278Z,13.50
2019-04-25T03:43:38.316Z,12.83
2019-04-25T03:46:06.183Z,11.83
2019-04-25T03:48:36.843Z,11.47
2019-04-25T03:51:04.576Z,11.87
2019-04-25T03:53:31.263Z,12.37
2019-04-25T03:55:58.140Z,11.67
2019-04-25T03:58:24.994Z,11.50
2019-04-25T04:00:52.008Z,11.07
2019-04-25T04:03:18.766Z,10.77
2019-04-25T04:05:45.543Z,9.60
2019-04-25T04:08:12.465Z,8.50
2019-04-25T04:10:39.204Z,7.73
2019-04-25T04:13:07.150Z,7.40
2019-04-25T04:15:34.717Z,7.27
2019-04-25T04:20:59.804Z,7.23
2019-04-25T04:23:46.338Z,10.13
2019-04-25T04:29:03.035Z,9.03
2019-04-25T04:31:30.293Z,10.27
2019-04-25T04:33:57.045Z,11.20
2019-04-25T04:36:23.862Z,10.63
2019-04-25T04:38:51.053Z,10.47
2019-04-25T04:41:17.902Z,10.97
2019-04-25T04:43:44.676Z,11.70
2019-04-25T04:46:12.093Z,13.90
2019-04-25T04:48:40.181Z,12.33
2019-04-25T04:51:06.920Z,12.90
2019-04-25T04:53:35.729Z,13.33
2019-04-25T04:56:02.310Z,13.00
2019-04-25T04:58:29.068Z,12.30
2019-04-25T05:00:55.830Z,12.90
2019-04-25T05:03:44.193Z,11.77
2019-04-25T05:06:31.213Z,12.43
2019-04-25T05:09:23.813Z,11.53
2019-04-25T05:11:51.828Z,10.60
2019-04-25T05:14:19.559Z,11.07
2019-04-25T05:16:49.449Z,11.10
2019-04-25T05:19:16.815Z,10.50
2019-04-25T05:22:04.694Z,10.73
2019-04-25T05:24:31.638Z,10.43
2019-04-25T05:26:58.928Z,9.97
2019-04-25T05:29:39.179Z,8.27
2019-04-25T05:32:06.795Z,7.90
2019-04-25T05:34:34.465Z,8.37
2019-04-25T05:37:03.798Z,7.57
2019-04-25T05:39:33.459Z,7.57
2019-04-25T05:44:50.594Z,6.70
2019-04-25T05:47:20.068Z,6.90
2019-04-25T05:49:47.966Z,6.90
2019-04-25T05:52:15.989Z,6.47
2019-04-25T05:54:44.382Z,5.53
2019-04-25T05:57:13.878Z,5.43
2019-04-25T05:59:40.708Z,5.10
2019-04-25T06:02:07.443Z,4.70
2019-04-25T06:04:34.301Z,4.20
2019-04-25T06:07:01.046Z,3.60
2019-04-25T06:09:47.546Z,4.13
2019-04-25T06:12:34.254Z,3.90
2019-04-25T06:15:02.907Z,3.37
2019-04-25T06:25:47.975Z,3.40
2019-04-25T06:31:10.299Z,2.47
2019-04-25T06:33:35.848Z,2.93
2019-04-25T06:36:04.182Z,3.10
2019-04-25T06:38:33.469Z,2.60
2019-04-25T06:41:01.213Z,2.40
2019-04-25T06:43:28.537Z,2.90
2019-04-25T06:46:15.493Z,2.47
2019-04-25T06:48:49.602Z,2.60
2019-04-25T06:51:17.199Z,2.47
2019-04-25T06:53:44.650Z,2.87
2019-04-25T06:56:13.571Z,2.40
2019-04-25T06:58:40.909Z,2.00
2019-04-25T07:01:08.087Z,2.03
2019-04-25T07:03:35.813Z,2.27
2019-04-25T07:06:29.168Z,2.10
2019-04-25T07:09:20.590Z,1.90
2019-04-25T07:11:53.759Z,2.13
2019-04-25T07:14:20.868Z,2.10
2019-04-25T07:16:47.673Z,2.03
2019-04-25T07:19:17.360Z,2.20
2019-04-25T07:21:44.375Z,2.20
2019-04-25T07:24:14.143Z,2.23
2019-04-25T07:27:01.422Z,2.00
2019-04-25T07:29:47.874Z,2.10
2019-04-25T07:32:35.686Z,1.90
2019-04-25T07:35:03.712Z,2.17
2019-04-25T07:37:30.895Z,2.23
2019-04-25T07:39:58.020Z,2.00
2019-04-25T07:42:25.980Z,1.70
2019-04-25T07:44:55.178Z,1.80
2019-04-25T07:47:24.208Z,1.83
2019-04-25T07:49:52.318Z,1.80
2019-04-25T07:52:19.415Z,1.80
2019-04-25T07:54:46.518Z,1.60
2019-04-25T07:57:14.044Z,1.83
2019-04-25T07:59:43.530Z,1.60
2019-04-25T08:02:10.666Z,1.50
2019-04-25T08:04:38.369Z,1.27
2019-04-25T08:07:05.861Z,1.30
2019-04-25T08:09:34.528Z,1.20
2019-04-25T08:12:03.366Z,1.10
2019-04-25T08:19:44.568Z,1.00
2019-04-25T08:22:58.371Z,0.90
2019-04-25T08:25:21.205Z,0.90
2019-04-25T08:27:48.028Z,1.20
2019-04-25T08:30:14.899Z,0.80
2019-04-25T08:33:04.827Z,0.90
2019-04-25T08:36:04.548Z,0.80
2019-04-25T08:38:20.925Z,0.80
2019-04-25T08:40:47.950Z,0.90
2019-04-25T08:43:14.734Z,0.97
2019-04-25T08:45:41.934Z,1.10
2019-04-25T08:48:09.214Z,1.10
2019-04-25T08:50:55.683Z,1.00
2019-04-25T08:59:10.376Z,1.10
2019-04-25T09:01:56.715Z,0.80
2019-04-25T09:04:44.606Z,0.80
2019-04-25T09:07:13.466Z,1.00
2019-04-25T09:09:41.140Z,1.10
2019-04-25T09:12:09.354Z,1.20
2019-04-25T09:14:36.806Z,1.00
2019-04-25T09:17:05.295Z,0.80
2019-04-25T09:19:33.587Z,1.17
2019-04-25T09:22:03.200Z,0.90
2019-04-25T09:24:30.091Z,1.00
2019-04-25T09:26:56.940Z,0.90
2019-04-25T09:29:23.713Z,0.70
2019-04-25T09:31:50.442Z,0.80
2019-04-25T09:34:17.424Z,0.90
2019-04-25T09:36:45.029Z,0.80
2019-04-25T09:39:33.798Z,0.90
2019-04-25T09:42:01.176Z,0.80
2019-04-25T09:52:21.814Z,0.90
2019-04-25T09:55:08.309Z,0.90
2019-04-25T09:57:55.027Z,0.63
2019-04-25T10:01:03.804Z,1.10
2019-04-25T10:03:33.301Z,1.10
2019-04-25T10:06:00.575Z,1.00
2019-04-25T10:08:27.575Z,0.90
2019-04-25T10:10:55.470Z,0.83
2019-04-25T10:13:23.507Z,0.87
2019-04-25T10:16:36.036Z,0.80
2019-04-25T10:19:03.430Z,1.07
2019-04-25T10:21:31.658Z,0.90
2019-04-25T10:23:58.433Z,0.97
2019-04-25T10:29:13.783Z,0.70
2019-04-25T10:31:40.752Z,1.00
2019-04-25T10:34:07.538Z,0.83
2019-04-25T10:36:34.828Z,0.60
2019-04-25T10:39:08.652Z,0.67
2019-04-25T10:41:30.944Z,0.77
2019-04-25T10:43:58.035Z,0.90
2019-04-25T10:46:24.901Z,0.80
2019-04-25T10:48:54.053Z,1.10
2019-04-25T10:51:20.453Z,1.00
2019-04-25T10:53:47.491Z,0.97
2019-04-25T10:56:14.515Z,0.80
2019-04-25T10:58:41.592Z,1.13
2019-04-25T11:01:08.409Z,0.70
2019-04-25T11:06:26.598Z,0.80
2019-04-25T11:08:55.422Z,0.73
2019-04-25T11:11:24.000Z,0.90
2019-04-25T11:14:34.050Z,0.80
2019-04-25T11:17:01.771Z,0.77
2019-04-25T11:19:28.951Z,0.83
2019-04-25T11:21:56.353Z,0.80
2019-04-25T11:24:23.825Z,0.90
2019-04-25T11:26:55.147Z,0.80
2019-04-25T11:29:21.187Z,0.80
2019-04-25T11:31:48.956Z,0.87
2019-04-25T11:37:05.871Z,0.97
2019-04-25T11:42:27.390Z,0.80
2019-04-25T11:44:54.531Z,0.80
2019-04-25T11:47:24.271Z,0.60
2019-04-25T11:49:54.194Z,0.70
2019-04-25T11:52:28.211Z,1.00
2019-04-25T11:54:50.277Z,0.62
2019-04-25T11:57:16.982Z,0.67
2019-04-25T11:59:45.195Z,0.60
2019-04-25T12:02:13.380Z,0.80
2019-04-25T12:04:42.557Z,0.80
2019-04-25T12:07:10.236Z,0.77
2019-04-25T12:09:36.954Z,0.87
2019-04-25T12:12:05.672Z,0.50
2019-04-25T12:14:34.045Z,0.77
2019-04-25T12:17:00.925Z,0.83
2019-04-25T12:19:35.725Z,0.70
2019-04-25T12:21:58.212Z,0.60
2019-04-25T12:24:25.792Z,0.67
2019-04-25T12:26:54.838Z,0.70
2019-04-25T12:29:21.661Z,0.73
2019-04-25T12:31:49.258Z,0.70
2019-04-25T12:34:17.784Z,0.60
2019-04-25T12:36:44.898Z,0.80
2019-04-25T12:39:14.079Z,0.67
2019-04-25T12:42:04.329Z,0.80
2019-04-25T12:44:51.524Z,0.63
2019-04-25T12:49:56.138Z,0.70
2019-04-25T12:52:24.699Z,0.70
2019-04-25T12:54:54.039Z,0.60
2019-04-25T12:59:57.601Z,0.60
2019-04-25T13:02:25.710Z,0.60
2019-04-25T13:04:54.506Z,1.10
2019-04-25T13:07:21.384Z,0.60
2019-04-25T13:09:51.240Z,1.10
2019-04-25T13:12:17.070Z,0.87
2019-04-25T13:14:43.791Z,0.70
2019-04-25T13:17:10.815Z,0.60
2019-04-25T13:19:37.592Z,0.60
2019-04-25T13:22:04.957Z,0.70
2019-04-25T13:24:33.470Z,0.53
2019-04-25T13:30:14.028Z,0.60
2019-04-25T13:33:00.649Z,0.60
2019-04-25T13:38:06.738Z,0.70
2019-04-25T13:40:33.969Z,0.60
2019-04-25T13:43:01.065Z,0.60
2019-04-25T13:45:28.523Z,0.70
2019-04-25T13:47:55.777Z,0.60
2019-04-25T13:50:24.012Z,0.60
2019-04-25T13:52:53.270Z,0.70
2019-04-25T13:55:21.313Z,0.60
2019-04-25T13:57:49.625Z,0.60
2019-04-25T14:03:05.424Z,0.70
2019-04-25T14:05:34.000Z,0.63
2019-04-25T14:08:01.300Z,0.80
2019-04-25T14:10:28.705Z,0.63
2019-04-25T14:12:55.707Z,0.63
2019-04-25T14:18:05.804Z,1.00
2019-04-25T14:20:56.446Z,0.97
2019-04-25T14:23:24.475Z,0.70
2019-04-25T14:25:52.601Z,0.70
2019-04-25T14:28:19.504Z,0.70
2019-04-25T14:30:46.569Z,0.60
2019-04-25T14:33:13.730Z,0.67
2019-04-25T14:35:40.534Z,0.70
2019-04-25T14:38:07.359Z,0.50
2019-04-25T14:40:35.231Z,0.70
2019-04-25T14:43:02.420Z,0.50
2019-04-25T14:45:41.701Z,0.73
2019-04-25T14:47:58.669Z,0.97
2019-04-25T14:50:25.835Z,0.90
2019-04-25T14:52:52.921Z,0.90
2019-04-25T14:55:40.200Z,1.00
2019-04-25T15:01:00.738Z,1.00
2019-04-25T15:03:27.586Z,1.03
2019-04-25T15:05:54.336Z,0.87
2019-04-25T15:08:21.374Z,0.97
2019-04-25T15:10:48.522Z,1.00
2019-04-25T15:13:17.353Z,1.00
2019-04-25T15:15:44.451Z,1.30
2019-04-25T15:18:12.043Z,1.00
2019-04-25T15:20:39.217Z,1.10
2019-04-25T15:23:06.319Z,1.40
2019-04-25T15:25:33.538Z,1.10
2019-04-25T15:28:00.963Z,1.20
2019-04-25T15:33:36.876Z,1.03
2019-04-25T15:36:23.657Z,1.13
2019-04-25T15:45:17.557Z,1.37
2019-04-25T15:48:34.563Z,1.37
2019-04-25T15:51:40.615Z,1.37
2019-04-25T15:54:08.196Z,1.47
2019-04-25T15:56:35.377Z,1.10
2019-04-25T15:59:02.750Z,1.40
2019-04-25T16:01:30.347Z,1.40
2019-04-25T16:03:57.687Z,1.47
2019-04-25T16:06:25.540Z,1.37
2019-04-25T16:08:53.902Z,1.60
2019-04-25T16:12:01.793Z,1.30
2019-04-25T16:14:28.896Z,1.40
2019-04-25T16:16:55.982Z,1.30
2019-04-25T16:19:23.353Z,1.27
2019-04-25T16:21:50.798Z,1.20
2019-04-25T16:24:17.954Z,1.40
2019-04-25T16:26:45.068Z,1.00
2019-04-25T16:29:12.236Z,1.30
2019-04-25T16:31:39.539Z,1.20
2019-04-25T16:34:07.003Z,1.10
2019-04-25T16:36:34.495Z,1.00
2019-04-25T16:39:01.616Z,1.00
2019-04-25T16:41:28.733Z,1.10
2019-04-25T16:46:38.216Z,1.13
2019-04-25T16:51:47.303Z,1.03
2019-04-25T16:54:14.404Z,0.90
2019-04-25T16:56:41.755Z,0.80
2019-04-25T16:59:09.307Z,0.83
2019-04-25T17:01:36.426Z,0.87
2019-04-25T17:04:04.272Z,0.90
2019-04-25T17:06:31.962Z,1.00
2019-04-25T17:08:59.057Z,0.70
2019-04-25T17:11:26.527Z,0.70
2019-04-25T17:14:13.363Z,0.70
2019-04-25T17:19:56.172Z,0.70
2019-04-25T17:28:07.285Z,0.73
2019-04-25T17:34:02.574Z,0.80
2019-04-25T17:40:05.521Z,0.90
2019-04-25T17:42:20.436Z,1.03
2019-04-25T17:44:47.532Z,1.00
2019-04-25T17:47:14.853Z,0.97
2019-04-25T17:49:42.375Z,1.00
2019-04-25T17:55:55.116Z,1.20
2019-04-25T17:58:22.218Z,1.00
2019-04-25T18:00:56.002Z,1.10
2019-04-25T18:03:23.094Z,1.03
2019-04-25T18:08:39.578Z,2.00
2019-04-25T18:13:55.694Z,2.50
2019-04-25T18:27:51.558Z,5.73
2019-04-25T18:30:18.681Z,4.23
2019-04-25T18:35:30.418Z,2.60
2019-04-25T18:38:16.886Z,2.57
2019-04-25T18:41:04.226Z,1.50
2019-04-25T18:43:36.928Z,1.40
2019-04-25T18:48:43.283Z,1.30
2019-04-25T18:51:10.058Z,1.10
2019-04-25T18:53:56.431Z,1.07
2019-04-25T18:57:07.779Z,1.00
2019-04-25T18:59:54.541Z,1.00
2019-04-25T19:02:42.113Z,1.00
2019-04-25T19:08:01.248Z,0.90
2019-04-25T19:10:28.012Z,1.00
2019-04-25T19:12:55.221Z,0.93
2019-04-25T19:15:22.044Z,0.87
2019-04-25T19:17:48.875Z,1.10
2019-04-25T19:20:35.701Z,1.23
2019-04-25T19:23:02.795Z,1.00
2019-04-25T19:25:30.020Z,1.43
2019-04-25T19:27:57.483Z,1.20
2019-04-25T19:30:25.879Z,1.00
2019-04-25T19:32:53.363Z,1.03
2019-04-25T19:35:21.103Z,0.97
2019-04-25T19:37:48.542Z,1.30
2019-04-25T19:40:36.696Z,1.20
2019-04-25T19:43:23.594Z,1.17
2019-04-25T19:45:51.217Z,1.40
2019-04-25T19:48:19.746Z,1.43
2019-04-25T19:50:59.485Z,1.33
2019-04-25T19:53:26.222Z,1.67
2019-04-25T19:55:53.215Z,1.23
2019-04-25T19:58:19.981Z,1.17
2019-04-25T20:07:31.573Z,1.30
2019-04-25T20:13:29.612Z,1.33
2019-04-25T20:15:56.475Z,1.20
2019-04-25T20:18:23.206Z,1.27
2019-04-25T20:20:50.109Z,1.13
2019-04-25T20:23:16.837Z,1.10
2019-04-25T20:25:43.961Z,1.10
2019-04-25T20:28:13.256Z,1.30
2019-04-25T20:30:40.516Z,1.07
2019-04-25T20:33:07.717Z,1.20
2019-04-25T20:35:34.855Z,1.20
2019-04-25T20:38:02.369Z,1.40
2019-04-25T20:40:30.428Z,1.30
2019-04-25T20:42:58.071Z,1.40
2019-04-25T20:45:25.335Z,1.23
2019-04-25T20:47:52.737Z,1.40
2019-04-25T20:50:20.019Z,1.23
2019-04-25T20:52:59.958Z,1.30
2019-04-25T20:55:27.058Z,1.43
2019-04-25T20:57:55.460Z,2.13
2019-04-25T21:03:33.236Z,2.20
2019-04-25T21:06:19.959Z,1.57
2019-04-25T21:08:47.627Z,1.37
2019-04-25T21:11:14.692Z,1.30
2019-04-25T21:14:01.539Z,1.30
2019-04-25T21:16:47.962Z,1.40
2019-04-25T21:19:17.266Z,1.40
2019-04-25T21:21:43.984Z,1.20
2019-04-25T21:24:11.003Z,1.40
2019-04-25T21:26:37.902Z,1.10
2019-04-25T21:29:26.151Z,1.20
2019-04-25T21:31:53.010Z,1.43
2019-04-25T21:34:25.983Z,1.30
2019-04-25T21:36:49.395Z,1.40
2019-04-25T21:39:36.363Z,1.40
2019-04-25T21:42:22.831Z,1.20
2019-04-25T21:44:49.812Z,1.43
2019-04-25T21:47:16.673Z,1.23
2019-04-25T21:49:43.614Z,1.40
2019-04-25T21:52:10.397Z,1.40
2019-04-25T21:54:37.694Z,1.40
2019-04-25T21:57:04.671Z,1.10
2019-04-25T21:59:31.767Z,1.30
2019-04-25T22:01:58.749Z,1.40
2019-04-25T22:04:37.990Z,1.20
2019-04-25T22:06:56.010Z,1.53
2019-04-25T22:14:48.013Z,1.73
2019-04-25T22:17:16.841Z,1.80
2019-04-25T22:19:44.763Z,1.63
2019-04-25T22:22:12.608Z,1.93
2019-04-25T22:24:40.991Z,2.07
2019-04-25T22:29:59.947Z,1.87
2019-04-25T22:32:47.814Z,1.70
2019-04-25T22:35:20.205Z,1.70
2019-04-25T22:37:46.947Z,1.60
2019-04-25T22:40:13.689Z,2.13
2019-04-25T22:42:40.602Z,1.83
2019-04-25T22:45:08.005Z,1.80
2019-04-25T22:47:36.765Z,1.90
2019-04-25T22:50:04.476Z,2.20
2019-04-25T22:52:33.115Z,1.90
2019-04-25T22:55:00.915Z,1.80
2019-04-25T22:57:29.021Z,1.90
2019-04-25T22:59:56.089Z,2.03
2019-04-25T23:02:42.976Z,1.87
2019-04-25T23:05:17.413Z,1.77
2019-04-25T23:07:45.504Z,2.13
2019-04-25T23:10:13.046Z,2.10
2019-04-25T23:12:40.294Z,2.20
2019-04-25T23:15:07.485Z,2.57
2019-04-25T23:17:34.698Z,2.10
2019-04-25T23:20:04.201Z,2.23
2019-04-25T23:22:30.913Z,2.50
2019-04-25T23:27:56.251Z,2.67
2019-04-25T23:33:14.696Z,2.77
2019-04-25T23:38:31.448Z,2.87
2019-04-25T23:40:58.473Z,3.20
2019-04-25T23:43:25.215Z,2.50
2019-04-25T23:45:52.018Z,3.00
2019-04-25T23:48:19.155Z,3.23
2019-04-25T23:50:45.905Z,2.83
2019-04-25T23:53:12.894Z,3.00
2019-04-25T23:55:39.680Z,2.83
2019-04-25T23:58:07.074Z,2.53
